createdAt,value
2022-10-07T00:00:52.153Z,97.37
2022-10-07T00:01:31.038Z,97.56
2022-10-07T00:02:31.070Z,97.66
2022-10-07T00:03:30.952Z,97.17
2022-10-07T00:04:51.915Z,97.37
2022-10-07T00:05:51.875Z,97.17
2022-10-07T00:06:30.858Z,97.37
2022-10-07T00:07:30.810Z,97.46
2022-10-07T00:08:30.774Z,96.61
2022-10-07T00:09:51.736Z,97.17
2022-10-07T00:10:51.718Z,96.98
2022-10-07T00:11:30.678Z,96.98
2022-10-07T00:12:30.635Z,97.17
2022-10-07T00:13:30.615Z,97.08
2022-10-07T00:14:51.562Z,97.17
2022-10-07T00:15:51.521Z,97.37
2022-10-07T00:16:30.574Z,97.17
2022-10-07T00:17:30.449Z,97.56
2022-10-07T00:18:30.430Z,97.17
2022-10-07T00:19:51.384Z,97.56
2022-10-07T00:20:51.346Z,97.94
2022-10-07T00:21:30.313Z,97.75
2022-10-07T00:22:30.277Z,97.75
2022-10-07T00:23:30.239Z,97.75
2022-10-07T00:24:51.207Z,97.75
2022-10-07T00:25:51.172Z,97.85
2022-10-07T00:26:30.146Z,97.56
2022-10-07T00:27:30.108Z,97.75
2022-10-07T00:28:30.167Z,97.46
2022-10-07T00:29:51.025Z,97.27
2022-10-07T00:30:51.055Z,97.75
2022-10-07T00:31:29.961Z,97.37
2022-10-07T00:32:29.924Z,97.37
2022-10-07T00:33:29.888Z,97.56
2022-10-07T00:34:50.850Z,97.17
2022-10-07T00:35:50.827Z,97.27
2022-10-07T00:36:29.781Z,97.27
2022-10-07T00:37:29.754Z,97.27
2022-10-07T00:38:29.718Z,97.27
2022-10-07T00:39:50.681Z,97.17
2022-10-07T00:40:50.636Z,97.75
2022-10-07T00:41:29.608Z,97.22
2022-10-07T00:42:29.570Z,97.13
2022-10-07T00:43:29.552Z,97.22
2022-10-07T00:44:50.519Z,97.22
2022-10-07T00:45:50.527Z,97.32
2022-10-07T00:46:29.435Z,97.32
2022-10-07T00:47:29.411Z,97.32
2022-10-07T00:48:29.357Z,97.22
2022-10-07T00:49:50.323Z,97.32
2022-10-07T00:50:50.360Z,97.32
2022-10-07T00:51:29.267Z,97.61
2022-10-07T00:52:29.229Z,97.70
2022-10-07T00:53:29.182Z,97.51
2022-10-07T00:54:50.150Z,97.70
2022-10-07T00:55:50.111Z,97.80
2022-10-07T00:56:29.070Z,97.70
2022-10-07T00:57:29.036Z,97.70
2022-10-07T00:58:29.002Z,97.70
2022-10-07T00:59:50.247Z,97.56
2022-10-07T01:00:49.985Z,97.51
2022-10-07T01:01:28.949Z,97.22
2022-10-07T01:02:28.970Z,97.61
2022-10-07T01:03:28.840Z,97.61
2022-10-07T01:04:49.808Z,97.89
2022-10-07T01:05:49.750Z,97.61
2022-10-07T01:06:28.722Z,97.22
2022-10-07T01:07:28.685Z,97.51
2022-10-07T01:08:28.652Z,97.89
2022-10-07T01:09:49.626Z,97.61
2022-10-07T01:10:49.570Z,97.70
2022-10-07T01:11:28.543Z,97.13
2022-10-07T01:12:28.504Z,97.51
2022-10-07T01:13:28.468Z,97.32
2022-10-07T01:14:49.426Z,97.22
2022-10-07T01:15:49.393Z,97.61
2022-10-07T01:16:28.447Z,97.32
2022-10-07T01:17:28.329Z,97.61
2022-10-07T01:18:28.287Z,97.32
2022-10-07T01:19:49.253Z,97.32
2022-10-07T01:20:49.220Z,97.32
2022-10-07T01:21:28.184Z,97.51
2022-10-07T01:22:28.209Z,97.32
2022-10-07T01:23:28.114Z,97.51
2022-10-07T01:24:49.097Z,97.51
2022-10-07T01:25:49.040Z,97.32
2022-10-07T01:26:28.004Z,97.32
2022-10-07T01:27:27.965Z,97.22
2022-10-07T01:28:27.997Z,97.51
2022-10-07T01:29:48.906Z,97.51
2022-10-07T01:30:48.918Z,98.08
2022-10-07T01:31:27.827Z,98.08
2022-10-07T01:32:27.792Z,97.89
2022-10-07T01:33:27.769Z,97.89
2022-10-07T01:34:48.715Z,97.89
2022-10-07T01:35:48.687Z,97.70
2022-10-07T01:36:27.646Z,97.32
2022-10-07T01:37:27.636Z,97.51
2022-10-07T01:38:27.575Z,97.51
2022-10-07T01:39:48.538Z,97.80
2022-10-07T01:40:48.502Z,97.32
2022-10-07T01:41:27.470Z,97.41
2022-10-07T01:42:27.443Z,97.32
2022-10-07T01:43:27.410Z,97.32
2022-10-07T01:44:48.358Z,97.41
2022-10-07T01:45:48.345Z,97.61
2022-10-07T01:46:27.372Z,97.22
2022-10-07T01:47:27.325Z,97.51
2022-10-07T01:48:27.218Z,97.70
2022-10-07T01:49:48.177Z,97.70
2022-10-07T01:50:48.140Z,98.18
2022-10-07T01:51:27.117Z,97.89
2022-10-07T01:52:27.073Z,97.89
2022-10-07T01:53:27.040Z,97.51
2022-10-07T01:54:48.008Z,97.99
2022-10-07T01:55:47.979Z,98.08
2022-10-07T01:56:26.939Z,97.80
2022-10-07T01:57:26.896Z,97.99
2022-10-07T01:58:26.865Z,97.99
2022-10-07T01:59:47.829Z,97.89
2022-10-07T02:00:47.802Z,97.51
2022-10-07T02:01:26.825Z,97.99
2022-10-07T02:02:26.717Z,97.89
2022-10-07T02:03:26.769Z,97.51
2022-10-07T02:04:47.641Z,97.51
2022-10-07T02:05:47.614Z,97.51
2022-10-07T02:06:26.584Z,97.99
2022-10-07T02:07:26.548Z,97.99
2022-10-07T02:08:26.503Z,98.08
2022-10-07T02:09:47.472Z,98.08
2022-10-07T02:10:47.429Z,97.89
2022-10-07T02:11:26.401Z,98.18
2022-10-07T02:12:26.367Z,97.94
2022-10-07T02:13:26.331Z,97.99
2022-10-07T02:14:47.291Z,97.70
2022-10-07T02:15:47.324Z,98.18
2022-10-07T02:16:26.269Z,97.80
2022-10-07T02:17:26.182Z,98.08
2022-10-07T02:18:26.145Z,97.80
2022-10-07T02:19:47.119Z,98.18
2022-10-07T02:20:47.073Z,97.89
2022-10-07T02:21:26.039Z,98.08
2022-10-07T02:22:26.000Z,97.80
2022-10-07T02:23:25.967Z,97.89
2022-10-07T02:24:46.929Z,98.08
2022-10-07T02:25:46.893Z,97.99
2022-10-07T02:26:25.861Z,97.89
2022-10-07T02:27:25.828Z,97.89
2022-10-07T02:28:25.879Z,97.84
2022-10-07T02:29:46.747Z,97.94
2022-10-07T02:30:46.772Z,98.03
2022-10-07T02:31:25.786Z,97.84
2022-10-07T02:32:25.648Z,98.08
2022-10-07T02:33:25.611Z,97.80
2022-10-07T02:34:46.564Z,97.84
2022-10-07T02:35:46.643Z,98.03
2022-10-07T02:36:25.498Z,97.94
2022-10-07T02:37:25.465Z,97.75
2022-10-07T02:38:25.426Z,97.84
2022-10-07T02:39:46.392Z,97.94
2022-10-07T02:40:46.351Z,98.03
2022-10-07T02:41:25.322Z,97.94
2022-10-07T02:42:25.297Z,98.13
2022-10-07T02:43:25.256Z,98.51
2022-10-07T02:44:46.207Z,98.41
2022-10-07T02:45:46.190Z,98.03
2022-10-07T02:46:25.192Z,98.51
2022-10-07T02:47:25.112Z,98.22
2022-10-07T02:48:25.087Z,98.22
2022-10-07T02:49:46.045Z,97.94
2022-10-07T02:50:45.994Z,98.03
2022-10-07T02:51:24.968Z,97.94
2022-10-07T02:52:24.951Z,98.32
2022-10-07T02:53:24.891Z,98.22
2022-10-07T02:54:45.846Z,97.94
2022-10-07T02:55:45.816Z,98.03
2022-10-07T02:56:24.780Z,98.13
2022-10-07T02:57:24.741Z,97.94
2022-10-07T02:58:24.726Z,98.51
2022-10-07T02:59:45.675Z,98.13
2022-10-07T03:00:45.644Z,98.89
2022-10-07T03:01:24.653Z,98.70
2022-10-07T03:02:24.566Z,98.60
2022-10-07T03:03:24.612Z,98.70
2022-10-07T03:04:45.496Z,98.60
2022-10-07T03:05:45.463Z,98.22
2022-10-07T03:06:24.433Z,98.60
2022-10-07T03:07:24.390Z,98.60
2022-10-07T03:08:24.350Z,98.22
2022-10-07T03:09:45.312Z,98.60
2022-10-07T03:10:45.270Z,98.70
2022-10-07T03:11:24.241Z,98.22
2022-10-07T03:12:24.209Z,98.51
2022-10-07T03:13:24.170Z,98.22
2022-10-07T03:14:45.138Z,98.51
2022-10-07T03:15:45.161Z,98.51
2022-10-07T03:16:24.133Z,98.60
2022-10-07T03:17:24.026Z,98.41
2022-10-07T03:18:23.987Z,98.41
2022-10-07T03:19:44.955Z,98.60
2022-10-07T03:20:44.918Z,98.70
2022-10-07T03:21:23.894Z,98.32
2022-10-07T03:22:23.860Z,98.41
2022-10-07T03:23:23.805Z,98.79
2022-10-07T03:24:44.778Z,98.32
2022-10-07T03:25:44.731Z,98.41
2022-10-07T03:26:23.697Z,98.51
2022-10-07T03:27:23.664Z,98.70
2022-10-07T03:28:23.666Z,98.89
2022-10-07T03:29:44.585Z,98.60
2022-10-07T03:30:44.550Z,98.60
2022-10-07T03:31:23.589Z,98.51
2022-10-07T03:32:23.487Z,98.60
2022-10-07T03:33:24.273Z,98.41
2022-10-07T03:34:44.409Z,98.60
2022-10-07T03:35:44.376Z,98.99
2022-10-07T03:36:23.347Z,98.89
2022-10-07T03:37:23.303Z,98.89
2022-10-07T03:38:23.264Z,98.41
2022-10-07T03:39:44.229Z,98.79
2022-10-07T03:40:44.192Z,98.13
2022-10-07T03:41:23.159Z,98.46
2022-10-07T03:42:23.140Z,98.84
2022-10-07T03:43:23.094Z,98.36
2022-10-07T03:44:44.042Z,98.94
2022-10-07T03:45:44.008Z,98.84
2022-10-07T03:46:23.012Z,98.79
2022-10-07T03:47:22.947Z,99.03
2022-10-07T03:48:22.907Z,98.65
2022-10-07T03:49:43.863Z,98.22
2022-10-07T03:50:43.829Z,98.74
2022-10-07T03:51:22.826Z,98.94
2022-10-07T03:52:22.794Z,98.65
2022-10-07T03:53:22.726Z,98.65
2022-10-07T03:54:43.684Z,98.70
2022-10-07T03:55:43.652Z,98.79
2022-10-07T03:56:22.613Z,98.89
2022-10-07T03:57:22.584Z,98.99
2022-10-07T03:58:22.543Z,98.99
2022-10-07T03:59:43.502Z,98.99
2022-10-07T04:00:44.268Z,98.65
2022-10-07T04:01:22.512Z,98.74
2022-10-07T04:02:22.399Z,98.99
2022-10-07T04:03:22.390Z,98.60
2022-10-07T04:04:43.325Z,99.13
2022-10-07T04:05:43.287Z,98.36
2022-10-07T04:06:22.256Z,98.89
2022-10-07T04:07:22.217Z,98.84
2022-10-07T04:08:22.196Z,98.84
2022-10-07T04:09:43.145Z,98.74
2022-10-07T04:10:43.102Z,99.03
2022-10-07T04:11:22.078Z,98.74
2022-10-07T04:12:22.055Z,98.94
2022-10-07T04:13:21.999Z,99.13
2022-10-07T04:14:42.962Z,98.84
2022-10-07T04:15:42.932Z,98.89
2022-10-07T04:16:22.044Z,98.74
2022-10-07T04:17:21.865Z,98.94
2022-10-07T04:18:21.824Z,98.94
2022-10-07T04:19:42.778Z,98.89
2022-10-07T04:20:42.744Z,98.65
2022-10-07T04:21:21.725Z,98.94
2022-10-07T04:22:21.672Z,98.94
2022-10-07T04:23:21.639Z,98.84
2022-10-07T04:24:42.607Z,98.94
2022-10-07T04:25:42.568Z,98.84
2022-10-07T04:26:21.528Z,98.74
2022-10-07T04:27:47.006Z,98.74
2022-10-07T04:28:21.476Z,98.94
2022-10-07T04:29:42.416Z,98.74
2022-10-07T04:30:42.466Z,98.74
2022-10-07T04:31:21.413Z,98.55
2022-10-07T04:32:21.315Z,98.65
2022-10-07T04:33:21.272Z,98.65
2022-10-07T04:34:42.229Z,98.74
2022-10-07T04:35:42.197Z,98.55
2022-10-07T04:36:21.165Z,98.74
2022-10-07T04:37:21.129Z,98.65
2022-10-07T04:38:23.313Z,99.03
2022-10-07T04:39:59.637Z,98.94
2022-10-07T04:40:42.019Z,99.03
2022-10-07T04:41:20.985Z,99.03
2022-10-07T04:42:20.950Z,98.94
2022-10-07T04:43:20.934Z,98.65
2022-10-07T04:44:41.876Z,98.55
2022-10-07T04:45:41.837Z,98.55
2022-10-07T04:46:20.864Z,98.74
2022-10-07T04:47:20.771Z,98.55
2022-10-07T04:48:20.738Z,98.94
2022-10-07T04:49:41.691Z,98.84
2022-10-07T04:50:41.652Z,98.65
2022-10-07T04:51:20.618Z,98.65
2022-10-07T04:52:20.584Z,98.55
2022-10-07T04:53:20.545Z,98.74
2022-10-07T04:54:41.509Z,99.03
2022-10-07T04:55:41.481Z,98.94
2022-10-07T04:56:20.442Z,98.46
2022-10-07T04:57:20.403Z,98.55
2022-10-07T04:58:20.376Z,98.65
2022-10-07T04:59:43.074Z,98.65
2022-10-07T05:00:41.350Z,98.65
2022-10-07T05:01:20.317Z,98.65
2022-10-07T05:02:20.305Z,98.65
2022-10-07T05:03:20.190Z,98.94
2022-10-07T05:04:41.139Z,98.94
2022-10-07T05:05:41.107Z,99.13
2022-10-07T05:06:20.077Z,98.46
2022-10-07T05:07:20.046Z,99.03
2022-10-07T05:08:20.004Z,98.84
2022-10-07T05:09:40.964Z,99.22
2022-10-07T05:10:40.925Z,99.22
2022-10-07T05:11:19.896Z,98.94
2022-10-07T05:12:19.855Z,98.94
2022-10-07T05:13:19.826Z,99.03
2022-10-07T05:14:40.780Z,98.94
2022-10-07T05:15:40.748Z,99.13
2022-10-07T05:16:19.772Z,98.94
2022-10-07T05:17:19.677Z,99.13
2022-10-07T05:18:19.644Z,98.74
2022-10-07T05:19:40.599Z,99.13
2022-10-07T05:20:40.560Z,98.74
2022-10-07T05:21:19.529Z,98.65
2022-10-07T05:22:19.489Z,99.13
2022-10-07T05:23:22.217Z,98.94
2022-10-07T05:24:40.415Z,98.74
2022-10-07T05:25:40.380Z,98.65
2022-10-07T05:26:19.351Z,98.65
2022-10-07T05:27:19.315Z,99.03
2022-10-07T05:28:19.310Z,98.65
2022-10-07T05:29:40.243Z,99.13
2022-10-07T05:30:40.202Z,98.84
2022-10-07T05:31:19.233Z,98.74
2022-10-07T05:32:19.128Z,98.65
2022-10-07T05:33:19.096Z,99.13
2022-10-07T05:34:40.057Z,98.84
2022-10-07T05:35:40.019Z,98.65
2022-10-07T05:36:18.982Z,98.65
2022-10-07T05:37:18.954Z,99.13
2022-10-07T05:38:18.913Z,98.74
2022-10-07T05:39:39.873Z,98.65
2022-10-07T05:40:39.833Z,99.03
2022-10-07T05:41:18.808Z,99.03
2022-10-07T05:42:18.790Z,98.65
2022-10-07T05:43:18.728Z,98.84
2022-10-07T05:44:39.694Z,98.74
2022-10-07T05:45:39.700Z,99.13
2022-10-07T05:46:18.652Z,99.03
2022-10-07T05:47:18.652Z,98.46
2022-10-07T05:48:18.553Z,98.55
2022-10-07T05:49:39.509Z,98.65
2022-10-07T05:50:39.479Z,98.65
2022-10-07T05:51:18.446Z,98.65
2022-10-07T05:52:18.402Z,99.13
2022-10-07T05:53:18.370Z,98.94
2022-10-07T05:54:39.340Z,98.94
2022-10-07T05:55:40.216Z,98.74
2022-10-07T05:56:18.263Z,98.94
2022-10-07T05:57:18.224Z,98.55
2022-10-07T05:58:18.199Z,98.74
2022-10-07T05:59:39.152Z,98.46
2022-10-07T06:00:39.104Z,98.46
2022-10-07T06:01:18.078Z,98.65
2022-10-07T06:02:18.143Z,98.65
2022-10-07T06:03:18.063Z,98.46
2022-10-07T06:04:38.962Z,98.94
2022-10-07T06:05:38.925Z,98.84
2022-10-07T06:06:17.894Z,98.46
2022-10-07T06:07:21.353Z,98.55
2022-10-07T06:08:17.820Z,99.03
2022-10-07T06:09:38.783Z,98.65
2022-10-07T06:10:38.738Z,98.65
2022-10-07T06:11:17.717Z,98.55
2022-10-07T06:12:17.687Z,98.74
2022-10-07T06:13:17.639Z,98.74
2022-10-07T06:14:38.607Z,98.65
2022-10-07T06:15:38.567Z,99.03
2022-10-07T06:16:17.587Z,99.13
2022-10-07T06:17:17.492Z,98.65
2022-10-07T06:18:17.472Z,98.65
2022-10-07T06:19:38.418Z,98.65
2022-10-07T06:20:38.376Z,98.65
2022-10-07T06:21:17.345Z,98.65
2022-10-07T06:22:17.311Z,98.94
2022-10-07T06:23:17.272Z,99.13
2022-10-07T06:24:38.232Z,98.65
2022-10-07T06:25:38.200Z,98.74
2022-10-07T06:26:17.163Z,98.74
2022-10-07T06:27:17.133Z,98.55
2022-10-07T06:28:17.144Z,98.65
2022-10-07T06:29:38.055Z,98.51
2022-10-07T06:30:38.059Z,99.22
2022-10-07T06:31:17.034Z,98.94
2022-10-07T06:32:16.951Z,99.08
2022-10-07T06:33:16.922Z,99.22
2022-10-07T06:34:37.869Z,98.89
2022-10-07T06:35:37.845Z,99.03
2022-10-07T06:36:16.802Z,98.94
2022-10-07T06:37:16.778Z,98.99
2022-10-07T06:38:16.730Z,98.84
2022-10-07T06:39:37.694Z,98.79
2022-10-07T06:40:37.666Z,98.79
2022-10-07T06:41:16.624Z,98.79
2022-10-07T06:42:16.601Z,98.89
2022-10-07T06:43:16.552Z,98.70
2022-10-07T06:44:37.514Z,98.70
2022-10-07T06:45:37.513Z,98.99
2022-10-07T06:46:16.526Z,98.60
2022-10-07T06:47:16.411Z,98.79
2022-10-07T06:48:16.380Z,99.08
2022-10-07T06:49:37.329Z,98.89
2022-10-07T06:50:37.289Z,98.89
2022-10-07T06:51:16.261Z,98.89
2022-10-07T06:52:16.226Z,98.99
2022-10-07T06:53:16.192Z,99.08
2022-10-07T06:54:37.148Z,98.79
2022-10-07T06:55:37.114Z,98.99
2022-10-07T06:56:16.094Z,99.18
2022-10-07T06:57:43.739Z,99.18
2022-10-07T06:58:16.003Z,98.99
2022-10-07T06:59:36.969Z,98.89
2022-10-07T07:00:36.938Z,99.08
2022-10-07T07:01:15.956Z,98.99
2022-10-07T07:02:15.912Z,98.79
2022-10-07T07:03:15.838Z,98.89
2022-10-07T07:04:36.789Z,98.70
2022-10-07T07:05:40.093Z,98.89
2022-10-07T07:06:15.721Z,99.08
2022-10-07T07:07:15.687Z,99.08
2022-10-07T07:08:15.659Z,98.85
2022-10-07T07:09:36.616Z,98.85
2022-10-07T07:10:36.572Z,99.22
2022-10-07T07:11:15.549Z,98.85
2022-10-07T07:12:15.541Z,98.85
2022-10-07T07:13:15.471Z,98.85
2022-10-07T07:14:36.441Z,99.22
2022-10-07T07:15:36.548Z,98.75
2022-10-07T07:16:15.687Z,98.75
2022-10-07T07:17:15.365Z,98.94
2022-10-07T07:18:15.283Z,98.75
2022-10-07T07:19:36.243Z,98.94
2022-10-07T07:20:36.219Z,98.94
2022-10-07T07:21:15.179Z,98.85
2022-10-07T07:22:15.141Z,99.04
2022-10-07T07:23:15.106Z,98.56
2022-10-07T07:24:36.069Z,98.75
2022-10-07T07:25:36.032Z,98.94
2022-10-07T07:26:14.996Z,98.94
2022-10-07T07:27:14.961Z,99.04
2022-10-07T07:28:14.983Z,99.22
2022-10-07T07:29:35.891Z,98.94
2022-10-07T07:30:35.895Z,99.04
2022-10-07T07:31:14.860Z,98.90
2022-10-07T07:32:14.786Z,99.13
2022-10-07T07:33:14.743Z,98.80
2022-10-07T07:34:35.716Z,98.90
2022-10-07T07:35:35.677Z,98.61
2022-10-07T07:36:14.637Z,98.80
2022-10-07T07:37:14.616Z,98.90
2022-10-07T07:38:14.565Z,98.90
2022-10-07T07:39:35.535Z,99.08
2022-10-07T07:40:35.503Z,99.08
2022-10-07T07:41:14.463Z,98.90
2022-10-07T07:42:14.423Z,98.80
2022-10-07T07:43:14.397Z,99.27
2022-10-07T07:44:35.360Z,99.18
2022-10-07T07:45:35.325Z,99.08
2022-10-07T07:46:14.312Z,99.08
2022-10-07T07:47:14.267Z,99.08
2022-10-07T07:48:14.213Z,98.99
2022-10-07T07:49:35.183Z,99.18
2022-10-07T07:50:35.142Z,98.94
2022-10-07T07:51:14.103Z,99.23
2022-10-07T07:52:14.070Z,99.04
2022-10-07T07:53:14.045Z,99.23
2022-10-07T07:54:34.999Z,99.32
2022-10-07T07:55:34.970Z,98.94
2022-10-07T07:56:13.941Z,99.32
2022-10-07T07:57:13.900Z,99.23
2022-10-07T07:58:13.858Z,99.04
2022-10-07T07:59:34.834Z,99.04
2022-10-07T08:00:34.807Z,99.04
2022-10-07T08:01:13.839Z,99.23
2022-10-07T08:02:14.369Z,99.13
2022-10-07T08:03:13.687Z,98.94
2022-10-07T08:04:34.642Z,99.23
2022-10-07T08:05:34.615Z,99.52
2022-10-07T08:06:13.595Z,99.66
2022-10-07T08:07:13.541Z,99.08
2022-10-07T08:08:13.505Z,99.66
2022-10-07T08:09:34.470Z,99.66
2022-10-07T08:10:34.428Z,99.76
2022-10-07T08:11:13.398Z,99.66
2022-10-07T08:12:13.364Z,99.18
2022-10-07T08:13:13.377Z,99.66
2022-10-07T08:14:34.296Z,99.28
2022-10-07T08:15:34.317Z,99.18
2022-10-07T08:16:13.336Z,99.08
2022-10-07T08:17:13.367Z,98.90
2022-10-07T08:18:13.154Z,98.90
2022-10-07T08:19:34.115Z,99.23
2022-10-07T08:20:34.081Z,98.94
2022-10-07T08:21:13.070Z,98.66
2022-10-07T08:22:13.019Z,99.14
2022-10-07T08:23:12.984Z,99.14
2022-10-07T08:24:33.939Z,98.85
2022-10-07T08:25:33.909Z,98.94
2022-10-07T08:26:12.891Z,98.94
2022-10-07T08:27:12.859Z,99.04
2022-10-07T08:28:12.834Z,99.23
2022-10-07T08:29:33.769Z,99.33
2022-10-07T08:30:33.740Z,99.33
2022-10-07T08:31:12.804Z,99.04
2022-10-07T08:32:12.673Z,99.04
2022-10-07T08:33:12.630Z,99.19
2022-10-07T08:34:33.596Z,99.09
2022-10-07T08:35:33.563Z,99.19
2022-10-07T08:36:12.527Z,99.09
2022-10-07T08:37:12.509Z,99.38
2022-10-07T08:38:14.535Z,99.28
2022-10-07T08:39:33.423Z,99.28
2022-10-07T08:40:33.389Z,99.09
2022-10-07T08:41:12.894Z,99.28
2022-10-07T08:42:12.323Z,99.33
2022-10-07T08:43:12.306Z,99.43
2022-10-07T08:44:33.252Z,99.24
2022-10-07T08:45:33.219Z,99.52
2022-10-07T08:46:12.241Z,99.14
2022-10-07T08:47:12.165Z,98.38
2022-10-07T08:48:12.121Z,98.57
2022-10-07T08:49:33.085Z,98.09
2022-10-07T08:50:33.043Z,98.47
2022-10-07T08:51:12.023Z,98.38
2022-10-07T08:52:11.995Z,98.18
2022-10-07T08:53:11.949Z,98.61
2022-10-07T08:54:32.905Z,98.14
2022-10-07T08:55:32.880Z,97.56
2022-10-07T08:56:11.855Z,97.75
2022-10-07T08:57:11.828Z,97.75
2022-10-07T08:58:11.791Z,97.08
2022-10-07T08:59:32.739Z,97.08
2022-10-07T09:00:32.712Z,97.37
2022-10-07T09:01:11.697Z,97.56
2022-10-07T09:02:11.645Z,97.75
2022-10-07T09:03:11.622Z,96.61
2022-10-07T09:04:32.591Z,96.70
2022-10-07T09:05:32.544Z,96.99
2022-10-07T09:06:11.508Z,96.75
2022-10-07T09:07:11.479Z,96.75
2022-10-07T09:08:11.454Z,96.47
2022-10-07T09:09:32.425Z,96.94
2022-10-07T09:10:32.378Z,96.94
2022-10-07T09:11:11.349Z,96.56
2022-10-07T09:12:11.309Z,95.98
2022-10-07T09:13:11.275Z,95.89
2022-10-07T09:14:32.237Z,96.94
2022-10-07T09:15:32.257Z,96.80
2022-10-07T09:16:11.200Z,95.84
2022-10-07T09:17:11.137Z,94.12
2022-10-07T09:18:11.105Z,93.35
2022-10-07T09:19:32.070Z,93.26
2022-10-07T09:20:32.037Z,92.68
2022-10-07T09:21:11.004Z,92.78
2022-10-07T09:22:10.978Z,92.40
2022-10-07T09:23:10.940Z,92.68
2022-10-07T09:24:31.980Z,92.78
2022-10-07T09:25:31.872Z,93.49
2022-10-07T09:26:10.853Z,92.92
2022-10-07T09:27:10.817Z,92.35
2022-10-07T09:28:10.808Z,92.63
2022-10-07T09:29:31.744Z,91.77
2022-10-07T09:30:31.705Z,92.25
2022-10-07T09:31:10.738Z,91.39
2022-10-07T09:32:10.642Z,91.29
2022-10-07T09:33:10.606Z,90.91
2022-10-07T09:34:31.569Z,90.23
2022-10-07T09:35:31.539Z,89.76
2022-10-07T09:36:10.514Z,90.05
2022-10-07T09:37:10.484Z,90.47
2022-10-07T09:38:10.445Z,90.38
2022-10-07T09:39:31.409Z,90.09
2022-10-07T09:40:31.386Z,89.61
2022-10-07T09:41:10.356Z,90.28
2022-10-07T09:42:10.320Z,89.90
2022-10-07T09:43:10.274Z,89.42
2022-10-07T09:44:31.242Z,89.71
2022-10-07T09:45:31.211Z,89.23
2022-10-07T09:46:10.229Z,89.04
2022-10-07T09:47:10.327Z,88.98
2022-10-07T09:48:10.123Z,88.98
2022-10-07T09:49:31.083Z,88.89
2022-10-07T09:50:31.048Z,88.70
2022-10-07T09:51:10.021Z,89.65
2022-10-07T09:52:09.984Z,89.37
2022-10-07T09:53:09.952Z,89.18
2022-10-07T09:54:30.925Z,88.31
2022-10-07T09:55:30.896Z,87.59
2022-10-07T09:56:09.864Z,87.78
2022-10-07T09:57:09.828Z,87.59
2022-10-07T09:58:09.790Z,87.21
2022-10-07T09:59:30.752Z,87.68
2022-10-07T10:00:30.758Z,87.40
2022-10-07T10:01:09.748Z,87.54
2022-10-07T10:02:09.722Z,87.35
2022-10-07T10:03:09.659Z,86.58
2022-10-07T10:04:30.622Z,87.15
2022-10-07T10:05:30.558Z,86.58
2022-10-07T10:06:09.553Z,85.33
2022-10-07T10:07:09.516Z,84.47
2022-10-07T10:08:09.478Z,83.64
2022-10-07T10:09:30.450Z,82.78
2022-10-07T10:10:30.410Z,83.16
2022-10-07T10:11:09.375Z,83.54
2022-10-07T10:12:09.353Z,83.64
2022-10-07T10:13:09.332Z,82.53
2022-10-07T10:14:30.279Z,82.34
2022-10-07T10:15:30.246Z,80.99
2022-10-07T10:16:09.282Z,81.19
2022-10-07T10:17:09.190Z,80.04
2022-10-07T10:18:09.171Z,80.04
2022-10-07T10:19:34.919Z,79.46
2022-10-07T10:20:30.088Z,79.40
2022-10-07T10:21:09.087Z,78.59
2022-10-07T10:22:09.030Z,79.88
2022-10-07T10:23:09.003Z,80.07
2022-10-07T10:24:29.964Z,80.07
2022-10-07T10:25:29.957Z,80.07
2022-10-07T10:26:08.915Z,78.53
2022-10-07T10:27:08.880Z,78.53
2022-10-07T10:28:08.901Z,78.86
2022-10-07T10:29:29.824Z,78.38
2022-10-07T10:30:29.780Z,77.90
2022-10-07T10:31:08.827Z,77.81
2022-10-07T10:32:08.800Z,77.84
2022-10-07T10:33:08.692Z,77.56
2022-10-07T10:34:29.656Z,76.69
2022-10-07T10:35:29.622Z,76.11
2022-10-07T10:36:08.614Z,76.50
2022-10-07T10:37:13.675Z,76.88
2022-10-07T10:38:08.537Z,76.01
2022-10-07T10:39:29.557Z,76.25
2022-10-07T10:40:29.503Z,75.86
2022-10-07T10:41:08.478Z,75.57
2022-10-07T10:42:08.416Z,75.13
2022-10-07T10:43:08.393Z,75.42
2022-10-07T10:44:29.355Z,75.51
2022-10-07T10:45:29.335Z,74.93
2022-10-07T10:46:08.327Z,74.03
2022-10-07T10:47:08.342Z,75.19
2022-10-07T10:48:08.240Z,73.74
2022-10-07T10:49:29.204Z,74.74
2022-10-07T10:50:29.196Z,74.26
2022-10-07T10:51:08.152Z,73.58
2022-10-07T10:52:13.133Z,73.68
2022-10-07T10:53:08.082Z,73.97
2022-10-07T10:54:29.056Z,73.39
2022-10-07T10:55:29.041Z,73.78
2022-10-07T10:56:07.998Z,73.78
2022-10-07T10:57:07.969Z,73.10
2022-10-07T10:58:07.945Z,73.62
2022-10-07T10:59:28.903Z,73.24
2022-10-07T11:00:28.882Z,73.62
2022-10-07T11:01:07.849Z,73.27
2022-10-07T11:02:07.861Z,72.50
2022-10-07T11:03:07.840Z,72.41
2022-10-07T11:04:28.763Z,71.38
2022-10-07T11:05:28.739Z,71.58
2022-10-07T11:06:07.730Z,70.42
2022-10-07T11:07:07.676Z,71.48
2022-10-07T11:08:07.653Z,71.77
2022-10-07T11:09:30.753Z,70.42
2022-10-07T11:10:28.584Z,70.13
2022-10-07T11:11:07.566Z,69.84
2022-10-07T11:12:07.529Z,70.90
2022-10-07T11:13:07.501Z,70.64
2022-10-07T11:14:28.475Z,69.58
2022-10-07T11:15:28.445Z,69.62
2022-10-07T11:16:07.539Z,69.07
2022-10-07T11:17:07.412Z,68.40
2022-10-07T11:18:07.363Z,68.30
2022-10-07T11:19:28.338Z,68.10
2022-10-07T11:20:28.303Z,68.30
2022-10-07T11:21:07.272Z,67.17
2022-10-07T11:22:07.290Z,68.01
2022-10-07T11:23:07.290Z,68.91
2022-10-07T11:24:28.189Z,68.13
2022-10-07T11:25:28.170Z,68.36
2022-10-07T11:26:07.134Z,68.17
2022-10-07T11:27:07.101Z,68.75
2022-10-07T11:28:07.177Z,68.65
2022-10-07T11:29:28.047Z,68.98
2022-10-07T11:30:28.019Z,68.33
2022-10-07T11:31:07.050Z,67.56
2022-10-07T11:32:06.960Z,67.08
2022-10-07T11:33:06.929Z,66.98
2022-10-07T11:34:27.907Z,65.63
2022-10-07T11:35:27.875Z,66.14
2022-10-07T11:36:06.849Z,66.05
2022-10-07T11:37:06.823Z,65.40
2022-10-07T11:38:06.787Z,65.20
2022-10-07T11:39:27.764Z,64.82
2022-10-07T11:40:29.100Z,65.66
2022-10-07T11:41:06.705Z,65.63
2022-10-07T11:42:06.694Z,65.69
2022-10-07T11:43:06.651Z,66.53
2022-10-07T11:44:27.622Z,65.05
2022-10-07T11:45:27.608Z,65.43
2022-10-07T11:46:11.191Z,65.59
2022-10-07T11:47:06.544Z,66.66
2022-10-07T11:48:06.516Z,66.56
2022-10-07T11:49:27.489Z,66.69
2022-10-07T11:50:27.460Z,66.91
2022-10-07T11:51:06.446Z,64.76
2022-10-07T11:52:06.428Z,65.08
2022-10-07T11:53:06.379Z,64.27
2022-10-07T11:54:27.348Z,64.56
2022-10-07T11:55:27.319Z,64.47
2022-10-07T11:56:06.303Z,64.69
2022-10-07T11:57:06.269Z,64.14
2022-10-07T11:58:06.232Z,63.46
2022-10-07T11:59:27.205Z,63.89
2022-10-07T12:00:27.182Z,64.75
2022-10-07T12:01:06.152Z,63.62
2022-10-07T12:02:06.178Z,63.14
2022-10-07T12:03:06.129Z,61.98
2022-10-07T12:04:27.627Z,62.27
2022-10-07T12:05:27.040Z,61.69
2022-10-07T12:06:06.019Z,61.30
2022-10-07T12:07:05.991Z,61.01
2022-10-07T12:08:05.962Z,61.88
2022-10-07T12:09:26.930Z,61.24
2022-10-07T12:10:26.910Z,63.27
2022-10-07T12:11:05.890Z,62.98
2022-10-07T12:12:05.853Z,63.66
2022-10-07T12:13:05.840Z,63.95
2022-10-07T12:14:26.812Z,63.08
2022-10-07T12:15:26.769Z,62.69
2022-10-07T12:16:05.803Z,62.85
2022-10-07T12:17:05.727Z,64.14
2022-10-07T12:18:05.697Z,64.82
2022-10-07T12:19:26.661Z,64.85
2022-10-07T12:20:26.644Z,63.40
2022-10-07T12:21:05.607Z,62.95
2022-10-07T12:22:05.595Z,62.24
2022-10-07T12:23:05.554Z,62.69
2022-10-07T12:24:27.472Z,62.63
2022-10-07T12:25:26.496Z,62.34
2022-10-07T12:26:05.506Z,62.72
2022-10-07T12:27:05.484Z,61.98
2022-10-07T12:28:05.495Z,61.98
2022-10-07T12:29:26.397Z,62.10
2022-10-07T12:30:26.367Z,62.33
2022-10-07T12:31:05.669Z,61.26
2022-10-07T12:32:05.364Z,60.97
2022-10-07T12:33:05.292Z,60.07
2022-10-07T12:34:26.368Z,60.00
2022-10-07T12:35:26.231Z,60.10
2022-10-07T12:36:05.212Z,59.88
2022-10-07T12:37:05.191Z,61.26
2022-10-07T12:38:05.160Z,60.78
2022-10-07T12:39:26.128Z,60.42
2022-10-07T12:40:26.103Z,60.17
2022-10-07T12:41:05.115Z,60.97
2022-10-07T12:42:05.052Z,59.97
2022-10-07T12:43:05.024Z,61.11
2022-10-07T12:44:25.997Z,60.91
2022-10-07T12:45:25.990Z,60.91
2022-10-07T12:46:04.988Z,62.01
2022-10-07T12:47:04.920Z,61.24
2022-10-07T12:48:04.892Z,60.88
2022-10-07T12:49:25.870Z,61.14
2022-10-07T12:50:25.851Z,61.14
2022-10-07T12:51:04.819Z,60.88
2022-10-07T12:52:04.798Z,60.14